createdAt,value
2022-12-15T00:01:37.043Z,100895.86
2022-12-15T00:04:27.918Z,100903.90
2022-12-15T00:07:18.325Z,100887.48
2022-12-15T00:10:09.058Z,100886.20
2022-12-15T00:12:59.930Z,100891.87
2022-12-15T00:15:51.140Z,100880.90
2022-12-15T00:18:42.179Z,100875.27
2022-12-15T00:21:33.036Z,100875.61
2022-12-15T00:24:24.659Z,100867.23
2022-12-15T00:27:16.031Z,100872.67
2022-12-15T00:30:07.422Z,100868.13
2022-12-15T00:32:58.896Z,100866.51
2022-12-15T00:35:50.319Z,100862.11
2022-12-15T00:38:41.249Z,100857.74
2022-12-15T00:41:18.044Z,100859.58
2022-12-15T00:43:50.900Z,100848.42
2022-12-15T00:46:42.276Z,100852.83
2022-12-15T00:49:33.178Z,100852.83
2022-12-15T00:52:24.446Z,100850.27
2022-12-15T00:55:15.888Z,100856.47
2022-12-15T00:58:07.127Z,100852.64
2022-12-15T01:00:57.879Z,100843.70
2022-12-15T01:03:48.737Z,100845.50
2022-12-15T01:06:40.651Z,100847.15
2022-12-15T01:09:32.569Z,100847.70
2022-12-15T01:12:23.248Z,100840.59
2022-12-15T01:15:15.211Z,100844.23
2022-12-15T01:18:06.547Z,100839.67
2022-12-15T01:20:39.791Z,100842.78
2022-12-15T01:23:13.092Z,100841.52
2022-12-15T01:25:46.120Z,100832.95
2022-12-15T01:28:23.741Z,100835.48
2022-12-15T01:30:57.110Z,100836.95
2022-12-15T01:33:30.180Z,100832.03
2022-12-15T01:36:04.096Z,100821.96
2022-12-15T01:38:38.541Z,100816.69
2022-12-15T01:41:12.952Z,100812.86
2022-12-15T01:43:47.343Z,100810.12
2022-12-15T01:46:23.473Z,100809.55
2022-12-15T01:49:15.051Z,100806.82
2022-12-15T01:51:51.467Z,100814.13
2022-12-15T01:54:37.951Z,100815.41
2022-12-15T01:57:16.113Z,100819.41
2022-12-15T01:59:52.830Z,100821.06
2022-12-15T02:02:29.825Z,100828.73
2022-12-15T02:05:24.041Z,100823.42
2022-12-15T02:07:57.599Z,100826.34
2022-12-15T02:10:35.163Z,100828.17
2022-12-15T02:13:36.906Z,100823.23
2022-12-15T02:16:20.477Z,100821.80
2022-12-15T02:19:04.212Z,100815.40
2022-12-15T02:21:47.340Z,100810.45
2022-12-15T02:24:36.312Z,100804.80
2022-12-15T02:27:44.290Z,100806.61
2022-12-15T02:30:47.271Z,100797.84
2022-12-15T02:33:24.370Z,100796.00
2022-12-15T02:36:11.183Z,100796.17
2022-12-15T02:38:45.422Z,100796.34
2022-12-15T02:41:40.273Z,100781.56
2022-12-15T02:44:15.222Z,100786.49
2022-12-15T02:47:10.952Z,100776.96
2022-12-15T02:49:49.878Z,100779.72
2022-12-15T02:52:45.692Z,100778.63
2022-12-15T02:55:56.448Z,100786.66
2022-12-15T02:58:55.280Z,100779.89
2022-12-15T03:01:41.007Z,100786.80
2022-12-15T03:04:14.517Z,100784.59
2022-12-15T03:06:47.305Z,100781.48
2022-12-15T03:09:20.221Z,100774.17
2022-12-15T03:11:53.509Z,100778.19
2022-12-15T03:14:26.796Z,100774.33
2022-12-15T03:16:59.735Z,100765.02
2022-12-15T03:19:33.148Z,100762.28
2022-12-15T03:22:06.997Z,100760.62
2022-12-15T03:24:39.799Z,100763.19
2022-12-15T03:27:12.885Z,100756.61
2022-12-15T03:29:45.690Z,100758.45
2022-12-15T03:32:18.690Z,100758.63
2022-12-15T03:34:52.096Z,100756.97
2022-12-15T03:37:25.484Z,100754.77
2022-12-15T03:39:58.665Z,100762.03
2022-12-15T03:42:50.177Z,100752.91
2022-12-15T03:45:25.666Z,100757.10
2022-12-15T03:47:59.154Z,100754.69
2022-12-15T03:50:32.260Z,100753.80
2022-12-15T03:53:06.907Z,100753.97
2022-12-15T03:55:40.013Z,100750.83
2022-12-15T03:58:13.129Z,100744.40
2022-12-15T04:00:46.204Z,100743.47
2022-12-15T04:03:19.248Z,100739.05
2022-12-15T04:05:52.660Z,100731.55
2022-12-15T04:08:27.011Z,100735.53
2022-12-15T04:11:00.017Z,100721.23
2022-12-15T04:13:34.225Z,100727.05
2022-12-15T04:16:08.194Z,100727.05
2022-12-15T04:18:41.513Z,100726.84
2022-12-15T04:21:15.759Z,100734.70
2022-12-15T04:24:06.242Z,100724.63
2022-12-15T04:26:57.523Z,100722.41
2022-12-15T04:29:48.046Z,100735.61
2022-12-15T04:32:38.447Z,100736.33
2022-12-15T04:35:29.656Z,100739.83
2022-12-15T04:38:21.490Z,100744.78
2022-12-15T04:41:12.158Z,100746.61
2022-12-15T04:44:03.009Z,100744.98
2022-12-15T04:46:54.062Z,100743.53
2022-12-15T04:49:44.546Z,100740.23
2022-12-15T04:52:35.685Z,100746.30
2022-12-15T04:55:27.759Z,100741.17
2022-12-15T04:58:20.343Z,100738.23
2022-12-15T05:01:13.243Z,100735.67
2022-12-15T05:04:04.365Z,100734.56
2022-12-15T05:06:56.064Z,100734.73
2022-12-15T05:09:46.660Z,100729.41
2022-12-15T05:12:36.989Z,100718.44
2022-12-15T05:15:28.557Z,100726.47
2022-12-15T05:18:19.663Z,100734.16
2022-12-15T05:21:10.416Z,100735.64
2022-12-15T05:24:00.999Z,100726.67
2022-12-15T05:26:53.281Z,100719.16
2022-12-15T05:29:43.950Z,100709.44
2022-12-15T05:32:16.921Z,100705.42
2022-12-15T05:34:49.962Z,100711.66
2022-12-15T05:37:24.433Z,100717.50
2022-12-15T05:39:57.502Z,100718.98
2022-12-15T05:42:30.969Z,100718.98
2022-12-15T05:45:05.286Z,100724.11
2022-12-15T05:47:38.471Z,100733.98
2022-12-15T05:50:11.767Z,100738.37
2022-12-15T05:52:49.287Z,100743.88
2022-12-15T05:55:20.494Z,100738.20
2022-12-15T05:57:54.848Z,100740.77
2022-12-15T06:00:27.842Z,100735.98
2022-12-15T06:03:01.137Z,100737.78
2022-12-15T06:05:34.717Z,100734.88
2022-12-15T06:08:07.967Z,100728.27
2022-12-15T06:10:40.853Z,100724.59
2022-12-15T06:13:15.228Z,100723.83
2022-12-15T06:16:01.591Z,100718.84
2022-12-15T06:18:38.265Z,100714.06
2022-12-15T06:21:18.150Z,100713.30
2022-12-15T06:23:51.062Z,100715.65
2022-12-15T06:26:31.627Z,100713.98
2022-12-15T06:29:08.786Z,100713.21
2022-12-15T06:31:43.124Z,100707.31
2022-12-15T06:34:18.575Z,100709.45
2022-12-15T06:36:51.339Z,100697.70
2022-12-15T06:39:24.852Z,100688.47
2022-12-15T06:41:57.835Z,100690.98
2022-12-15T06:44:31.115Z,100687.80
2022-12-15T06:47:04.772Z,100681.69
2022-12-15T06:49:38.657Z,100683.64
2022-12-15T06:52:11.557Z,100683.75
2022-12-15T06:54:45.089Z,100690.27
2022-12-15T06:57:18.218Z,100689.84
2022-12-15T06:59:51.422Z,100690.72
2022-12-15T07:02:28.989Z,100684.64
2022-12-15T07:05:00.981Z,100693.89
2022-12-15T07:07:34.228Z,100685.02
2022-12-15T07:10:08.417Z,100676.02
2022-12-15T07:12:40.760Z,100691.53
2022-12-15T07:15:13.787Z,100693.31
2022-12-15T07:17:46.692Z,100692.87
2022-12-15T07:20:22.883Z,100687.55
2022-12-15T07:22:55.733Z,100680.34
2022-12-15T07:25:28.908Z,100684.13
2022-12-15T07:28:01.792Z,100681.34
2022-12-15T07:30:38.926Z,100684.08
2022-12-15T07:33:11.796Z,100689.53
2022-12-15T07:35:44.966Z,100677.02
2022-12-15T07:38:18.430Z,100673.72
2022-12-15T07:40:52.222Z,100678.63
2022-12-15T07:43:25.363Z,100674.87
2022-12-15T07:45:58.268Z,100670.61
2022-12-15T07:48:31.335Z,100674.79
2022-12-15T07:51:15.172Z,100666.70
2022-12-15T07:53:42.826Z,100664.68
2022-12-15T07:56:16.189Z,100661.53
2022-12-15T07:58:51.848Z,100655.05
2022-12-15T08:01:25.286Z,100650.81
2022-12-15T08:03:58.493Z,100649.14
2022-12-15T08:06:32.006Z,100653.54
2022-12-15T08:09:04.743Z,100646.31
2022-12-15T08:11:38.013Z,100639.41
2022-12-15T08:14:17.090Z,100636.92
2022-12-15T08:16:45.616Z,100630.59
2022-12-15T08:19:19.290Z,100639.91
2022-12-15T08:21:52.224Z,100638.36
2022-12-15T08:24:25.452Z,100646.16
2022-12-15T08:26:58.761Z,100641.26
2022-12-15T08:29:50.509Z,100645.43
2022-12-15T08:32:07.959Z,100645.59
2022-12-15T08:34:42.517Z,100648.70
2022-12-15T08:37:15.324Z,100636.91
2022-12-15T08:39:48.354Z,100637.61
2022-12-15T08:42:21.606Z,100627.09
2022-12-15T08:44:54.546Z,100631.03
2022-12-15T08:47:27.586Z,100633.17
2022-12-15T08:50:01.853Z,100635.00
2022-12-15T08:52:36.472Z,100643.19
2022-12-15T08:55:16.795Z,100642.06
2022-12-15T08:57:47.748Z,100637.66
2022-12-15T09:00:21.099Z,100634.85
2022-12-15T09:02:53.987Z,100639.95
2022-12-15T09:05:28.131Z,100633.45
2022-12-15T09:08:06.589Z,100627.63
2022-12-15T09:10:36.397Z,100625.14
2022-12-15T09:13:09.866Z,100636.79
2022-12-15T09:16:08.483Z,100622.56
2022-12-15T09:18:17.848Z,100612.38
2022-12-15T09:20:50.833Z,100605.31
2022-12-15T09:23:25.293Z,100594.04
2022-12-15T09:26:07.252Z,100587.41
2022-12-15T09:28:40.453Z,100580.88
2022-12-15T09:31:19.439Z,100570.73
2022-12-15T09:33:54.673Z,100568.83
2022-12-15T09:36:28.682Z,100567.33
2022-12-15T09:39:03.433Z,100565.95
2022-12-15T09:41:38.515Z,100549.97
2022-12-15T09:44:21.034Z,100542.73
2022-12-15T09:47:08.363Z,100540.16
2022-12-15T09:49:55.224Z,100537.34
2022-12-15T09:52:36.163Z,100514.87
2022-12-15T09:55:16.932Z,100510.38
2022-12-15T09:58:19.044Z,100507.05
2022-12-15T10:00:59.203Z,100493.79
2022-12-15T10:04:10.735Z,100483.80
2022-12-15T10:07:04.012Z,100483.88
2022-12-15T10:09:39.035Z,100479.77
2022-12-15T10:12:33.562Z,100468.58
2022-12-15T10:15:17.795Z,100466.75
2022-12-15T10:18:10.114Z,100456.61
2022-12-15T10:20:43.392Z,100456.61
2022-12-15T10:23:18.331Z,100456.61
2022-12-15T10:25:58.372Z,100457.89
2022-12-15T10:29:06.925Z,100455.70
2022-12-15T10:31:59.466Z,100452.11
2022-12-15T10:34:38.279Z,100447.89
2022-12-15T10:37:18.866Z,100443.24
2022-12-15T10:39:53.155Z,100436.59
2022-12-15T10:42:28.495Z,100435.06
2022-12-15T10:45:01.644Z,100438.32
2022-12-15T10:47:35.041Z,100427.38
2022-12-15T10:50:27.799Z,100418.91
2022-12-15T10:53:00.886Z,100412.86
2022-12-15T10:55:50.044Z,100410.64
2022-12-15T10:58:22.698Z,100405.89
2022-12-15T11:01:15.551Z,100406.57
2022-12-15T11:03:50.722Z,100398.34
2022-12-15T11:06:30.348Z,100398.25
2022-12-15T11:09:25.846Z,100393.92
2022-12-15T11:12:17.112Z,100382.02
2022-12-15T11:14:52.440Z,100367.45
2022-12-15T11:17:26.428Z,100365.55
2022-12-15T11:20:10.648Z,100349.84
2022-12-15T11:23:00.980Z,100338.39
2022-12-15T11:25:44.304Z,100342.12
2022-12-15T11:28:26.097Z,100339.55
2022-12-15T11:31:06.396Z,100335.82
2022-12-15T11:33:39.593Z,100338.54
2022-12-15T11:36:20.289Z,100339.97
2022-12-15T11:38:58.217Z,100336.50
2022-12-15T11:41:56.036Z,100336.50
2022-12-15T11:44:59.075Z,100335.97
2022-12-15T11:47:44.070Z,100329.92
2022-12-15T11:50:27.703Z,100327.55
2022-12-15T11:53:17.588Z,100334.64
2022-12-15T11:56:00.914Z,100339.11
2022-12-15T11:58:50.493Z,100321.95
2022-12-15T12:01:57.160Z,100316.12
2022-12-15T12:04:53.687Z,100315.61
2022-12-15T12:07:42.411Z,100313.65
2022-12-15T12:10:48.928Z,100317.52
2022-12-15T12:13:52.843Z,100312.61
2022-12-15T12:16:51.157Z,100304.74
2022-12-15T12:19:35.055Z,100302.42
2022-12-15T12:22:31.637Z,100307.42
2022-12-15T12:25:12.407Z,100301.20
2022-12-15T12:28:04.000Z,100297.20
2022-12-15T12:30:44.844Z,100305.70
2022-12-15T12:33:38.648Z,100293.45
2022-12-15T12:36:17.527Z,100296.91
2022-12-15T12:38:53.707Z,100302.98
2022-12-15T12:41:59.947Z,100312.36
2022-12-15T12:44:37.858Z,100305.03
2022-12-15T12:47:24.335Z,100293.45
2022-12-15T12:50:07.992Z,100296.16
2022-12-15T12:52:40.980Z,100286.75
2022-12-15T12:55:30.712Z,100282.14
2022-12-15T12:58:03.951Z,100276.59
2022-12-15T13:00:37.618Z,100287.05
2022-12-15T13:03:22.553Z,100290.69
2022-12-15T13:05:55.836Z,100295.44
2022-12-15T13:08:51.735Z,100289.90
2022-12-15T13:11:52.202Z,100291.19
2022-12-15T13:14:42.233Z,100288.11
2022-12-15T13:17:34.814Z,100287.05
2022-12-15T13:20:22.622Z,100300.31
2022-12-15T13:22:57.414Z,100298.13
2022-12-15T13:25:43.055Z,100296.30
2022-12-15T13:28:32.428Z,100289.62
2022-12-15T13:31:22.567Z,100281.53
2022-12-15T13:33:59.709Z,100282.03
2022-12-15T13:36:54.283Z,100271.37
2022-12-15T13:39:30.400Z,100265.83
2022-12-15T13:44:52.705Z,100280.60
2022-12-15T13:47:32.588Z,100296.30
2022-12-15T13:50:39.255Z,100291.55
2022-12-15T13:53:21.169Z,100291.02
2022-12-15T15:03:05.499Z,100274.70
2022-12-15T15:44:42.329Z,100276.28
2022-12-15T15:47:27.149Z,100271.70
2022-12-15T15:49:59.787Z,100268.67
2022-12-15T15:52:34.381Z,100271.00
2022-12-15T15:55:10.552Z,100266.64
2022-12-15T15:57:43.618Z,100257.32
2022-12-15T16:00:22.181Z,100253.64
2022-12-15T16:02:55.037Z,100242.63
2022-12-15T16:05:28.047Z,100252.47
2022-12-15T16:37:41.898Z,100244.74
2022-12-15T16:40:21.683Z,100241.63
2022-12-15T16:42:58.522Z,100240.48
2022-12-15T16:45:32.828Z,100236.38
2022-12-15T16:48:06.390Z,100226.62
2022-12-15T16:50:49.774Z,100225.48
2022-12-15T16:53:33.729Z,100226.37
2022-12-15T16:56:09.263Z,100214.03
2022-12-15T16:58:42.541Z,100228.87
2022-12-15T17:01:16.155Z,100216.14
2022-12-15T17:03:49.359Z,100218.71
2022-12-15T17:06:22.197Z,100225.51
2022-12-15T17:08:57.684Z,100219.18
2022-12-15T17:11:31.276Z,100226.37
2022-12-15T17:14:04.297Z,100223.94
2022-12-15T17:16:37.325Z,100228.08
2022-12-15T17:19:12.250Z,100230.91
2022-12-15T17:21:49.742Z,100234.77
2022-12-15T17:24:23.244Z,100235.30
2022-12-15T17:26:56.074Z,100239.38
2022-12-15T17:29:31.080Z,100242.88
2022-12-15T17:32:03.940Z,100243.02
2022-12-15T17:34:36.948Z,100233.87
2022-12-15T17:37:11.630Z,100237.34
2022-12-15T17:39:46.703Z,100238.23
2022-12-15T17:42:22.085Z,100232.34
2022-12-15T17:44:54.944Z,100236.48
2022-12-15T17:47:29.563Z,100234.05
2022-12-15T17:50:02.411Z,100238.05
2022-12-15T17:52:36.051Z,100232.12
2022-12-15T17:55:29.077Z,100238.20
2022-12-15T17:57:59.882Z,100227.36
2022-12-15T18:00:35.199Z,100238.05
2022-12-15T18:03:08.658Z,100231.62
2022-12-15T18:05:42.145Z,100235.73
2022-12-15T18:08:22.095Z,100237.02
2022-12-15T18:10:58.307Z,100238.30
2022-12-15T18:13:35.673Z,100236.23
2022-12-15T18:16:09.584Z,100238.41
2022-12-15T18:18:42.720Z,100239.34
2022-12-15T18:21:17.533Z,100236.77
2022-12-15T18:23:50.359Z,100233.80
2022-12-15T18:26:23.051Z,100234.08
2022-12-15T18:28:56.098Z,100237.55
2022-12-15T18:31:30.713Z,100236.27
2022-12-15T18:34:04.957Z,100235.66
2022-12-15T18:36:37.417Z,100236.80
2022-12-15T18:39:24.608Z,100231.25
2022-12-15T18:41:57.573Z,100219.52
2022-12-15T18:44:32.956Z,100223.39
2022-12-15T18:47:18.986Z,100219.17
2022-12-15T18:49:51.924Z,100223.92
2022-12-15T18:52:31.485Z,100229.47
2022-12-15T18:55:00.818Z,100229.83
2022-12-15T18:57:37.055Z,100224.82
2022-12-15T19:00:19.720Z,100235.26
2022-12-15T19:02:54.223Z,100237.08
2022-12-15T19:05:29.896Z,100230.89
2022-12-15T19:08:10.436Z,100239.27
2022-12-15T19:11:04.326Z,100233.36
2022-12-15T19:13:38.938Z,100232.35
2022-12-15T19:16:18.941Z,100242.05
2022-12-15T19:19:15.380Z,100229.39
2022-12-15T19:22:02.715Z,100227.34
2022-12-15T19:24:53.395Z,100223.87
2022-12-15T19:27:27.671Z,100222.45
2022-12-15T19:29:59.598Z,100223.87
2022-12-15T19:32:32.667Z,100220.52
2022-12-15T19:35:06.549Z,100215.22
2022-12-15T19:37:39.352Z,100212.42
2022-12-15T19:40:22.543Z,100210.35
2022-12-15T19:42:55.823Z,100201.73
2022-12-15T19:45:32.387Z,100207.28
2022-12-15T19:48:05.739Z,100205.85
2022-12-15T19:50:40.941Z,100207.64
2022-12-15T19:53:24.813Z,100209.31
2022-12-15T19:56:02.409Z,100209.71
2022-12-15T19:58:38.941Z,100206.20
2022-12-15T20:01:17.778Z,100202.34
2022-12-15T20:03:53.506Z,100207.14
2022-12-15T20:06:28.765Z,100201.84
2022-12-15T20:09:01.962Z,100196.16
2022-12-15T20:11:35.214Z,100198.20
2022-12-15T20:14:17.611Z,100195.41
2022-12-15T20:16:52.171Z,100204.92
2022-12-15T20:19:24.801Z,100209.85
2022-12-15T20:21:58.321Z,100210.61
2022-12-15T20:24:32.561Z,100216.16
2022-12-15T20:27:10.190Z,100217.44
2022-12-15T20:29:39.741Z,100215.95
2022-12-15T20:32:21.894Z,100209.65
2022-12-15T20:34:54.676Z,100208.03
2022-12-15T20:37:30.331Z,100219.22
2022-12-15T20:40:03.158Z,100225.52
2022-12-15T20:42:36.341Z,100227.95
2022-12-15T20:45:10.512Z,100220.48
2022-12-15T20:47:44.987Z,100217.63
2022-12-15T20:50:39.726Z,100215.19
2022-12-15T20:53:22.518Z,100218.91
2022-12-15T20:55:57.176Z,100214.91
2022-12-15T20:58:33.416Z,100207.58
2022-12-15T21:01:06.975Z,100203.86
2022-12-15T21:03:41.620Z,100200.14
2022-12-15T21:06:14.554Z,100198.59
2022-12-15T21:08:47.393Z,100200.92
2022-12-15T21:11:33.097Z,100201.06
2022-12-15T21:14:09.660Z,100201.20
2022-12-15T21:16:42.824Z,100195.91
2022-12-15T21:19:21.380Z,100192.97
2022-12-15T21:21:54.871Z,100190.76
2022-12-15T21:24:29.552Z,100188.19
2022-12-15T21:27:04.351Z,100193.47
2022-12-15T21:29:36.314Z,100188.32
2022-12-15T21:32:09.326Z,100189.25
2022-12-15T21:34:42.559Z,100182.67
2022-12-15T21:37:28.044Z,100188.19
2022-12-15T21:40:00.907Z,100177.24
2022-12-15T21:42:36.569Z,100183.82
2022-12-15T21:45:22.772Z,100184.32
2022-12-15T21:48:13.036Z,100180.45
2022-12-15T21:50:47.797Z,100180.23
2022-12-15T21:53:20.530Z,100165.80
2022-12-15T21:55:53.342Z,100169.88
2022-12-15T21:58:27.673Z,100160.98
2022-12-15T22:01:02.284Z,100156.59
2022-12-15T22:03:36.740Z,100149.79
2022-12-15T22:06:17.258Z,100143.84
2022-12-15T22:08:53.056Z,100140.38
2022-12-15T22:11:31.625Z,100143.57
2022-12-15T22:14:20.331Z,100137.00
2022-12-15T22:16:54.385Z,100132.86
2022-12-15T22:19:27.841Z,100126.53
2022-12-15T22:22:00.786Z,100125.64
2022-12-15T22:24:34.570Z,100131.55
2022-12-15T22:27:09.943Z,100134.91
2022-12-15T22:29:42.687Z,100139.13
2022-12-15T22:32:17.517Z,100148.14
2022-12-15T22:34:50.273Z,100140.41
2022-12-15T22:37:24.838Z,100138.77
2022-12-15T22:39:57.521Z,100124.33
2022-12-15T22:42:30.532Z,100122.91
2022-12-15T22:45:04.131Z,100115.80
2022-12-15T22:47:40.078Z,100115.66
2022-12-15T22:50:17.803Z,100109.48
2022-12-15T22:52:51.046Z,100110.34
2022-12-15T22:55:25.683Z,100105.45
2022-12-15T22:58:02.170Z,100117.39
2022-12-15T23:00:34.991Z,100109.92
2022-12-15T23:03:10.554Z,100110.67
2022-12-15T23:05:44.167Z,100101.81
2022-12-15T23:08:16.752Z,100108.64
2022-12-15T23:11:07.993Z,100109.39
2022-12-15T23:13:41.002Z,100109.50
2022-12-15T23:16:23.720Z,100114.51
2022-12-15T23:18:57.984Z,100103.04
2022-12-15T23:21:30.246Z,100101.75
2022-12-15T23:24:03.136Z,100099.94
2022-12-15T23:26:35.841Z,100104.69
2022-12-15T23:29:08.563Z,100110.90
2022-12-15T23:31:42.976Z,100097.64
2022-12-15T23:34:15.710Z,100093.17
2022-12-15T23:36:51.284Z,100097.39
2022-12-15T23:39:24.730Z,100090.45
2022-12-15T23:41:58.043Z,100089.53
2022-12-15T23:44:31.449Z,100085.67
2022-12-15T23:47:05.581Z,100091.34
2022-12-15T23:49:38.546Z,100084.16
2022-12-15T23:52:11.918Z,100097.67
2022-12-15T23:54:45.031Z,100102.95
2022-12-15T23:57:17.866Z,100117.03
2022-12-15T23:59:51.037Z,100133.25
